Time;durP1;ratioP1;P1;durP2;ratioP2;P2;SDS_P1;SDS_P2;PMS_P1;PMS_P2;Temp;Humidity;BMP_temperature;BMP_pressure;BME280_temperature;BME280_humidity;BME280_pressure;Samples;Min_cycle;Max_cycle;Signal;HPM_P1;HPM_P2
2023/08/09 00:01:02;;;;;;;3.67;2.88;;;15.70;99.90;;;;;;5012917;28;20520;-47
2023/08/09 00:03:28;;;;;;;4.35;3.05;;;15.60;99.90;;;;;;5012779;28;20222;-46
2023/08/09 00:05:54;;;;;;;7.68;3.08;;;15.70;99.90;;;;;;5013690;28;20183;-47
2023/08/09 00:08:19;;;;;;;5.65;2.70;;;15.80;99.90;;;;;;5012869;28;20184;-47
2023/08/09 00:10:45;;;;;;;4.45;2.85;;;15.60;99.90;;;;;;5012905;28;20176;-47
2023/08/09 00:13:12;;;;;;;5.47;2.95;;;15.80;99.90;;;;;;5011844;28;20220;-48
2023/08/09 00:15:37;;;;;;;5.38;3.08;;;15.60;99.90;;;;;;5020561;28;20241;-47
2023/08/09 00:18:03;;;;;;;8.55;3.35;;;15.70;99.90;;;;;;5032591;28;20171;-46
2023/08/09 00:20:29;;;;;;;9.27;3.75;;;15.70;99.90;;;;;;5032743;28;20178;-47
2023/08/09 00:22:54;;;;;;;6.65;3.72;;;15.80;99.90;;;;;;5032873;28;20239;-47
2023/08/09 00:25:20;;;;;;;5.38;3.03;;;15.80;99.90;;;;;;5032229;28;20179;-46
2023/08/09 00:27:46;;;;;;;7.53;3.47;;;15.70;99.90;;;;;;5032344;28;20678;-46
2023/08/09 00:30:12;;;;;;;5.38;3.50;;;15.80;99.90;;;;;;5032666;28;20566;-46
2023/08/09 00:32:38;;;;;;;8.68;3.35;;;15.70;99.90;;;;;;5032645;28;20179;-46
2023/08/09 00:35:05;;;;;;;4.35;3.63;;;15.80;99.90;;;;;;5031731;28;20191;-46
2023/08/09 00:37:31;;;;;;;5.32;3.38;;;15.60;99.90;;;;;;5032124;28;20218;-46
2023/08/09 00:39:56;;;;;;;7.15;4.20;;;15.70;99.90;;;;;;5032456;28;20179;-46
2023/08/09 00:42:25;;;;;;;8.45;3.83;;;15.60;99.90;;;;;;5032603;28;20551;-46
2023/08/09 00:44:51;;;;;;;6.43;4.20;;;15.70;99.90;;;;;;5018337;28;20172;-46
2023/08/09 00:47:18;;;;;;;5.88;4.07;;;15.70;99.90;;;;;;5012187;28;20211;-46
2023/08/09 00:49:45;;;;;;;4.80;3.88;;;15.60;99.90;;;;;;5012215;28;20172;-46
2023/08/09 00:52:11;;;;;;;7.22;3.78;;;15.80;99.90;;;;;;5012169;28;20168;-47
2023/08/09 00:54:40;;;;;;;10.80;4.15;;;15.60;99.90;;;;;;5023464;28;20508;-45
2023/08/09 00:57:07;;;;;;;11.13;4.20;;;15.70;99.90;;;;;;5031815;28;20170;-46
2023/08/09 00:59:33;;;;;;;5.07;3.65;;;15.60;99.90;;;;;;5031925;28;20167;-46
2023/08/09 01:01:58;;;;;;;5.60;4.00;;;15.60;99.90;;;;;;5031591;28;20306;-46
2023/08/09 01:04:24;;;;;;;7.30;4.63;;;15.80;99.90;;;;;;5022302;28;20172;-45
2023/08/09 01:07:06;;;;;;;7.82;4.60;;;15.70;99.90;;;;;;5012005;28;20212;-46
2023/08/09 01:09:44;;;;;;;5.43;3.92;;;15.70;99.90;;;;;;5011854;28;20175;-46
2023/08/09 01:12:12;;;;;;;4.68;4.15;;;15.90;99.90;;;;;;5011774;28;20208;-45
2023/08/09 01:14:42;;;;;;;8.70;4.18;;;15.60;99.90;;;;;;5022703;28;20171;-45
2023/08/09 01:17:12;;;;;;;8.48;4.65;;;15.80;99.90;;;;;;5031851;28;20569;-46
2023/08/09 01:19:48;;;;;;;6.80;4.35;;;15.60;99.90;;;;;;5031825;28;20175;-46
2023/08/09 01:22:28;;;;;;;8.50;4.50;;;15.60;99.90;;;;;;5031349;28;20162;-46
2023/08/09 01:24:56;;;;;;;9.98;4.03;;;15.90;99.90;;;;;;5018216;28;20168;-46
2023/08/09 01:27:22;;;;;;;10.60;4.68;;;15.60;99.90;;;;;;5012183;28;20567;-46
2023/08/09 01:29:47;;;;;;;9.02;4.72;;;15.90;99.90;;;;;;5011601;28;20164;-46
2023/08/09 01:32:13;;;;;;;6.47;4.43;;;15.70;99.90;;;;;;5011729;28;20175;-46
2023/08/09 01:34:39;;;;;;;9.35;4.60;;;15.80;99.90;;;;;;5022360;28;20581;-46
2023/08/09 01:37:37;;;;;;;9.75;5.10;;;15.80;99.90;;;;;;5030703;28;20654;-46
2023/08/09 01:40:08;;;;;;;3.80;2.65;;;15.80;99.90;;;;;;5030830;28;20191;-46
2023/08/09 01:42:36;;;;;;;2.85;1.90;;;15.50;99.90;;;;;;5031345;28;20171;-46
2023/08/09 01:45:04;;;;;;;2.40;1.90;;;15.50;99.90;;;;;;5017008;28;20183;-45
2023/08/09 01:47:30;;;;;;;3.60;1.90;;;15.30;99.90;;;;;;5011523;28;20211;-46
2023/08/09 01:49:55;;;;;;;1.98;1.80;;;15.30;99.90;;;;;;5010004;28;20180;-46
2023/08/09 01:52:21;;;;;;;2.13;1.88;;;15.00;99.90;;;;;;5011727;28;20168;-45
2023/08/09 01:54:46;;;;;;;2.30;2.10;;;15.10;99.90;;;;;;5022595;28;20205;-46
2023/08/09 01:57:12;;;;;;;3.22;2.75;;;14.90;99.90;;;;;;5030966;28;20186;-46
2023/08/09 01:59:38;;;;;;;3.10;2.88;;;14.90;99.90;;;;;;5030979;28;20229;-47
2023/08/09 02:02:04;;;;;;;4.00;2.63;;;14.90;99.90;;;;;;5030955;28;20199;-46
2023/08/09 02:04:30;;;;;;;4.03;2.65;;;14.90;99.90;;;;;;5029139;28;20590;-45
2023/08/09 02:06:56;;;;;;;4.43;3.08;;;15.00;99.90;;;;;;5030716;28;20591;-46
2023/08/09 02:09:21;;;;;;;3.00;2.80;;;14.90;99.90;;;;;;5031237;28;20610;-46
2023/08/09 02:11:47;;;;;;;3.67;3.38;;;14.90;99.90;;;;;;5030734;28;20222;-46
2023/08/09 02:14:12;;;;;;;3.65;3.10;;;14.90;99.90;;;;;;5019785;28;20789;-46
2023/08/09 02:16:40;;;;;;;4.00;2.78;;;14.90;99.90;;;;;;5011016;28;20192;-45
2023/08/09 02:19:06;;;;;;;3.63;3.33;;;14.80;99.90;;;;;;5010957;28;20725;-46
2023/08/09 02:21:31;;;;;;;5.05;3.60;;;14.80;99.90;;;;;;5011340;28;20176;-46
2023/08/09 02:23:57;;;;;;;3.40;3.10;;;14.90;99.90;;;;;;5012037;28;20169;-46
2023/08/09 02:26:22;;;;;;;3.45;2.65;;;14.90;99.90;;;;;;5023022;28;20211;-46
2023/08/09 02:28:50;;;;;;;3.92;3.10;;;14.80;99.90;;;;;;5029074;28;20228;-46
2023/08/09 02:31:19;;;;;;;3.17;2.88;;;14.90;99.90;;;;;;5030703;28;20631;-46
2023/08/09 02:33:44;;;;;;;3.65;3.10;;;14.90;99.90;;;;;;5022969;28;20172;-46
2023/08/09 02:36:10;;;;;;;3.90;3.03;;;14.90;99.90;;;;;;5012987;28;20178;-45
2023/08/09 02:38:35;;;;;;;3.13;2.92;;;14.90;99.90;;;;;;5014744;28;20575;-46
2023/08/09 02:41:01;;;;;;;3.72;3.42;;;14.80;99.90;;;;;;5014790;28;20174;-45
2023/08/09 02:43:27;;;;;;;3.47;3.13;;;14.80;99.90;;;;;;5018453;28;20172;-45
2023/08/09 02:45:53;;;;;;;3.95;3.38;;;14.80;99.90;;;;;;5035065;28;20222;-46
2023/08/09 02:48:19;;;;;;;3.95;2.90;;;15.00;99.90;;;;;;5034211;28;20195;-46
2023/08/09 02:50:45;;;;;;;4.22;3.03;;;14.90;99.90;;;;;;5034170;28;20194;-46
2023/08/09 02:53:11;;;;;;;4.43;3.10;;;14.80;99.90;;;;;;5032559;28;20171;-46
2023/08/09 02:55:37;;;;;;;3.65;3.35;;;14.80;99.90;;;;;;5014647;28;20234;-45
2023/08/09 02:58:04;;;;;;;3.90;3.30;;;14.80;99.90;;;;;;5014330;28;20235;-46
2023/08/09 03:00:33;;;;;;;3.30;3.00;;;14.80;99.90;;;;;;5014282;28;20620;-45
2023/08/09 03:03:00;;;;;;;3.97;3.28;;;14.90;99.90;;;;;;5014221;28;20168;-46
2023/08/09 03:05:26;;;;;;;3.47;3.20;;;14.90;99.90;;;;;;5033289;28;20175;-45
2023/08/09 03:07:52;;;;;;;5.25;3.28;;;15.00;99.90;;;;;;5034235;28;20706;-45
2023/08/09 03:10:18;;;;;;;3.47;3.17;;;14.90;99.90;;;;;;5033973;28;20195;-46
2023/08/09 03:12:44;;;;;;;3.08;2.60;;;14.90;99.90;;;;;;5033675;28;20566;-46
2023/08/09 03:15:10;;;;;;;3.80;3.05;;;14.80;99.90;;;;;;5016431;28;20176;-46
2023/08/09 03:17:36;;;;;;;2.60;2.40;;;14.80;99.90;;;;;;5013919;28;20172;-46
2023/08/09 03:20:10;;;;;;;3.13;2.83;;;14.80;99.90;;;;;;5014008;28;20530;-45
2023/08/09 03:22:36;;;;;;;4.93;2.97;;;14.90;99.90;;;;;;5014057;28;20275;-45
2023/08/09 03:25:01;;;;;;;4.03;3.10;;;14.90;99.90;;;;;;5029171;28;20241;-46
2023/08/09 03:27:27;;;;;;;4.10;3.22;;;14.90;99.90;;;;;;5033671;28;20210;-46
2023/08/09 03:29:53;;;;;;;6.22;3.72;;;14.80;99.90;;;;;;5033991;28;20166;-46
2023/08/09 03:32:18;;;;;;;4.15;3.75;;;15.00;99.90;;;;;;5026782;28;20184;-46
2023/08/09 03:34:44;;;;;;;5.68;4.40;;;14.90;99.90;;;;;;5013583;28;20247;-46
2023/08/09 03:37:10;;;;;;;12.65;4.82;;;14.80;99.90;;;;;;5013804;28;20176;-47
2023/08/09 03:39:36;;;;;;;7.60;4.97;;;14.90;99.90;;;;;;5013869;28;20180;-46
2023/08/09 03:42:01;;;;;;;7.85;4.70;;;14.80;99.90;;;;;;5017364;28;20168;-46
2023/08/09 03:44:27;;;;;;;6.80;5.15;;;15.00;99.90;;;;;;5033172;28;20218;-48
2023/08/09 03:46:53;;;;;;;6.30;5.22;;;14.80;99.90;;;;;;5033395;28;20210;-48
2023/08/09 03:49:19;;;;;;;6.20;4.47;;;14.80;99.90;;;;;;5033328;28;20160;-46
2023/08/09 03:51:44;;;;;;;9.15;5.15;;;14.80;99.90;;;;;;5032507;28;20164;-46
2023/08/09 03:54:10;;;;;;;7.13;5.20;;;14.80;99.90;;;;;;5033125;28;20173;-46
2023/08/09 03:56:36;;;;;;;7.47;4.80;;;15.00;99.90;;;;;;5033128;28;20178;-47
2023/08/09 03:59:02;;;;;;;10.85;5.40;;;14.80;99.90;;;;;;5033024;28;20168;-46
2023/08/09 04:01:27;;;;;;;8.48;5.15;;;15.00;99.90;;;;;;5032866;28;20523;-47
2023/08/09 04:03:53;;;;;;;12.23;5.30;;;14.90;99.90;;;;;;5013154;28;20188;-49
2023/08/09 04:06:19;;;;;;;6.32;4.70;;;14.90;99.90;;;;;;5012916;28;20208;-48
2023/08/09 04:08:46;;;;;;;12.82;5.55;;;14.90;99.90;;;;;;5013282;28;20176;-46
2023/08/09 04:11:11;;;;;;;8.75;4.53;;;14.80;99.90;;;;;;5012817;28;20318;-45
2023/08/09 04:13:37;;;;;;;8.18;4.50;;;14.90;99.90;;;;;;5028728;28;20756;-46
2023/08/09 04:16:03;;;;;;;9.00;4.22;;;15.00;99.90;;;;;;5032714;28;20171;-46
2023/08/09 04:18:28;;;;;;;3.75;3.45;;;14.90;99.90;;;;;;5032585;28;20302;-47
2023/08/09 04:20:54;;;;;;;5.32;4.32;;;14.80;99.90;;;;;;5032986;28;20164;-47
2023/08/09 04:23:20;;;;;;;5.95;3.58;;;14.90;99.90;;;;;;5018527;28;20180;-46
2023/08/09 04:25:46;;;;;;;7.85;3.58;;;14.80;99.90;;;;;;5012886;28;20168;-46
2023/08/09 04:28:11;;;;;;;3.97;3.17;;;14.90;99.90;;;;;;5012552;28;20207;-46
2023/08/09 04:30:37;;;;;;;4.85;3.53;;;14.80;99.90;;;;;;5012685;28;20160;-46
2023/08/09 04:33:03;;;;;;;6.65;3.50;;;14.90;99.90;;;;;;5023272;28;20182;-46
2023/08/09 04:35:30;;;;;;;5.03;3.53;;;15.00;99.90;;;;;;5032073;28;20635;-46
2023/08/09 04:37:56;;;;;;;6.40;3.42;;;14.90;99.90;;;;;;5032335;28;20182;-46
2023/08/09 04:40:24;;;;;;;4.53;3.00;;;15.00;99.90;;;;;;5032824;28;20176;-47
2023/08/09 04:42:50;;;;;;;3.15;2.88;;;15.00;99.90;;;;;;5023108;28;20655;-47
2023/08/09 04:45:16;;;;;;;4.78;3.03;;;15.00;99.90;;;;;;5012722;28;20176;-46
2023/08/09 04:47:41;;;;;;;3.50;3.20;;;15.10;99.90;;;;;;5012148;28;20215;-49
2023/08/09 04:50:08;;;;;;;3.55;3.25;;;15.20;99.90;;;;;;5012301;28;20172;-46
2023/08/09 04:52:34;;;;;;;5.47;3.28;;;15.20;99.90;;;;;;5018752;28;20183;-47
2023/08/09 04:55:01;;;;;;;4.15;3.67;;;15.30;99.90;;;;;;5031912;28;20163;-46
2023/08/09 04:57:26;;;;;;;3.75;3.10;;;15.40;99.90;;;;;;5031823;28;20167;-46
2023/08/09 04:59:52;;;;;;;4.30;3.03;;;15.40;99.90;;;;;;5031975;28;20258;-47
2023/08/09 05:02:18;;;;;;;4.82;2.90;;;15.20;99.90;;;;;;5027124;28;20194;-46
2023/08/09 05:04:43;;;;;;;6.35;2.97;;;15.20;99.90;;;;;;5011913;28;20200;-46
2023/08/09 05:07:09;;;;;;;3.65;3.28;;;15.30;99.90;;;;;;5012017;28;20207;-46
2023/08/09 05:09:35;;;;;;;3.63;2.97;;;15.40;99.90;;;;;;5011959;28;20167;-46
2023/08/09 05:12:00;;;;;;;4.80;3.25;;;15.40;99.90;;;;;;5013005;28;20294;-46
2023/08/09 05:14:26;;;;;;;3.00;2.67;;;15.50;99.90;;;;;;5031655;28;20163;-46
2023/08/09 05:16:53;;;;;;;5.57;3.00;;;15.30;99.90;;;;;;5031870;28;20730;-46
2023/08/09 05:19:19;;;;;;;4.78;3.10;;;15.30;99.90;;;;;;5031483;28;20621;-46
2023/08/09 05:21:45;;;;;;;6.22;3.13;;;15.50;99.90;;;;;;5031304;28;20631;-46
2023/08/09 05:24:10;;;;;;;5.10;3.40;;;15.60;99.90;;;;;;5012105;28;20231;-46
2023/08/09 05:26:37;;;;;;;5.38;3.63;;;15.50;99.90;;;;;;5011463;28;20274;-46
2023/08/09 05:29:02;;;;;;;5.28;3.80;;;15.50;99.90;;;;;;5011755;28;20231;-46
2023/08/09 05:31:28;;;;;;;4.00;3.30;;;15.50;99.90;;;;;;5011556;28;20172;-46
2023/08/09 05:33:54;;;;;;;6.55;3.50;;;15.50;99.90;;;;;;5028031;28;20164;-47
2023/08/09 05:36:19;;;;;;;3.92;3.28;;;15.70;99.90;;;;;;5031816;28;20202;-46
2023/08/09 05:38:45;;;;;;;3.28;2.97;;;15.70;99.90;;;;;;5031179;28;20242;-47
2023/08/09 05:41:11;;;;;;;3.65;3.20;;;15.70;99.90;;;;;;5031306;28;20174;-46
2023/08/09 05:43:37;;;;;;;4.75;4.25;;;15.80;99.90;;;;;;5016798;28;20176;-48
2023/08/09 05:46:03;;;;;;;9.63;3.90;;;15.80;99.90;;;;;;5011372;28;20183;-48
2023/08/09 05:48:28;;;;;;;8.15;4.88;;;15.80;99.90;;;;;;5011602;28;20321;-47
2023/08/09 05:50:54;;;;;;;8.77;4.63;;;15.90;99.90;;;;;;5011217;28;20203;-45
2023/08/09 05:53:20;;;;;;;8.13;5.57;;;15.80;99.90;;;;;;5022716;28;20175;-46
2023/08/09 05:55:45;;;;;;;11.25;5.07;;;15.90;99.90;;;;;;5030834;28;20178;-46
2023/08/09 05:58:11;;;;;;;7.07;4.07;;;15.90;99.90;;;;;;5031004;28;20174;-46
2023/08/09 06:00:37;;;;;;;6.88;4.80;;;15.80;99.90;;;;;;5031033;28;20178;-46
2023/08/09 06:03:03;;;;;;;5.47;4.70;;;15.80;99.90;;;;;;5021743;28;20196;-46
2023/08/09 06:05:28;;;;;;;5.57;4.95;;;15.80;99.90;;;;;;5011209;28;20726;-46
2023/08/09 06:07:55;;;;;;;5.20;4.70;;;15.90;99.90;;;;;;5011195;28;20622;-46
2023/08/09 06:10:22;;;;;;;6.13;5.18;;;15.90;99.90;;;;;;5012416;28;20168;-46
2023/08/09 06:12:49;;;;;;;8.90;5.72;;;15.90;99.90;;;;;;5020021;28;20219;-47
2023/08/09 06:15:15;;;;;;;6.97;5.32;;;16.20;99.90;;;;;;5034876;28;20193;-46
2023/08/09 06:17:40;;;;;;;8.00;6.63;;;16.20;99.90;;;;;;5034883;28;20175;-46
2023/08/09 06:20:07;;;;;;;7.80;7.10;;;16.20;99.90;;;;;;5034868;28;20221;-46
2023/08/09 06:22:33;;;;;;;8.30;7.50;;;16.20;99.90;;;;;;5030298;28;20200;-49
2023/08/09 06:24:58;;;;;;;6.70;6.10;;;16.50;99.90;;;;;;5014835;28;20191;-47
2023/08/09 06:27:24;;;;;;;8.45;7.65;;;16.40;99.90;;;;;;5015099;28;20266;-46
2023/08/09 06:29:50;;;;;;;11.43;8.57;;;16.30;99.90;;;;;;5015222;28;20175;-46
2023/08/09 06:32:16;;;;;;;8.88;7.88;;;16.40;99.90;;;;;;5015822;28;20214;-47
2023/08/09 06:34:42;;;;;;;8.65;7.85;;;16.50;99.90;;;;;;5014798;28;20505;-46
2023/08/09 06:37:08;;;;;;;9.63;7.28;;;16.40;99.90;;;;;;5015097;28;20176;-48
2023/08/09 06:39:36;;;;;;;9.73;8.80;;;16.50;99.90;;;;;;5014925;28;20602;-45
2023/08/09 06:42:02;;;;;;;8.30;7.50;;;16.50;99.90;;;;;;5014591;28;20179;-46
2023/08/09 06:44:27;;;;;;;8.80;7.85;;;16.70;99.90;;;;;;5014572;28;20597;-46
2023/08/09 06:46:56;;;;;;;7.97;7.28;;;16.80;99.90;;;;;;5015051;28;20200;-47
2023/08/09 06:49:22;;;;;;;7.22;6.63;;;16.90;99.90;;;;;;5015262;28;20262;-46
2023/08/09 06:51:48;;;;;;;8.05;6.70;;;16.90;99.90;;;;;;5013483;28;20234;-47
2023/08/09 06:54:14;;;;;;;8.70;7.63;;;16.90;99.90;;;;;;5014414;28;20225;-47
2023/08/09 06:56:40;;;;;;;7.43;6.72;;;17.00;99.90;;;;;;5014298;28;20298;-46
2023/08/09 06:59:05;;;;;;;7.18;6.53;;;16.90;99.90;;;;;;5014361;28;20179;-46
2023/08/09 07:01:31;;;;;;;7.63;6.78;;;16.90;99.90;;;;;;5022471;28;20180;-46
2023/08/09 07:03:57;;;;;;;7.13;6.43;;;17.00;99.90;;;;;;5034054;28;20190;-45
2023/08/09 07:06:23;;;;;;;8.10;7.40;;;17.00;99.90;;;;;;5033086;28;20210;-46
2023/08/09 07:08:53;;;;;;;8.75;6.45;;;17.10;99.90;;;;;;5034535;28;20179;-46
2023/08/09 07:11:19;;;;;;;8.20;7.40;;;17.40;99.90;;;;;;5027072;28;20647;-45
2023/08/09 07:13:45;;;;;;;10.57;6.85;;;17.60;99.90;;;;;;5013955;28;20590;-48
2023/08/09 07:16:10;;;;;;;7.85;7.13;;;17.70;99.90;;;;;;5029161;28;20176;-48
2023/08/09 07:18:36;;;;;;;7.88;7.18;;;17.50;99.90;;;;;;5013900;28;20172;-47
2023/08/09 07:21:01;;;;;;;7.70;7.00;;;17.70;99.90;;;;;;5017108;28;20171;-48
2023/08/09 07:23:27;;;;;;;12.18;8.13;;;17.90;99.90;;;;;;5033492;28;20178;-46
2023/08/09 07:25:52;;;;;;;9.15;7.82;;;18.10;99.90;;;;;;5034290;28;20552;-45
2023/08/09 07:28:18;;;;;;;8.75;7.60;;;18.20;99.90;;;;;;5033558;28;20211;-46
2023/08/09 07:30:43;;;;;;;10.93;9.80;;;18.10;99.90;;;;;;5031815;28;20163;-46
2023/08/09 07:33:09;;;;;;;9.50;8.23;;;18.00;99.90;;;;;;5013646;28;20567;-45
2023/08/09 07:35:35;;;;;;;9.02;8.07;;;17.90;99.90;;;;;;5013660;28;20555;-46
2023/08/09 07:38:01;;;;;;;8.70;8.00;;;18.10;99.90;;;;;;5013939;28;20259;-45
2023/08/09 07:40:26;;;;;;;8.70;7.78;;;18.40;99.90;;;;;;5013685;28;20171;-45
2023/08/09 07:42:53;;;;;;;8.70;7.80;;;18.70;99.90;;;;;;5032355;28;20171;-45
2023/08/09 07:45:18;;;;;;;10.65;7.88;;;18.70;99.90;;;;;;5033314;28;20635;-46
2023/08/09 07:47:44;;;;;;;8.48;7.68;;;18.90;99.90;;;;;;5033088;28;20218;-45
2023/08/09 07:50:10;;;;;;;10.63;7.32;;;19.10;99.90;;;;;;5033393;28;20198;-45
2023/08/09 07:52:36;;;;;;;8.35;7.38;;;19.10;99.90;;;;;;5016914;28;20183;-46
2023/08/09 07:55:04;;;;;;;7.40;6.65;;;19.20;99.90;;;;;;5013236;28;20533;-47
2023/08/09 07:57:30;;;;;;;7.43;6.68;;;19.50;99.90;;;;;;5012313;28;20179;-45
2023/08/09 07:59:56;;;;;;;6.68;6.07;;;19.40;99.90;;;;;;5013218;28;20160;-45
2023/08/09 08:02:21;;;;;;;7.57;6.25;;;19.50;99.90;;;;;;5027269;28;20190;-45
2023/08/09 08:04:47;;;;;;;8.52;6.18;;;19.40;99.90;;;;;;5032827;28;20164;-45
2023/08/09 08:07:13;;;;;;;7.43;6.50;;;19.30;99.90;;;;;;5033144;28;20218;-45
2023/08/09 08:09:41;;;;;;;7.18;5.85;;;19.40;99.90;;;;;;5032787;28;20210;-46
2023/08/09 08:12:08;;;;;;;8.35;6.00;;;19.50;99.90;;;;;;5020622;28;20223;-45
2023/08/09 08:14:37;;;;;;;7.45;6.50;;;19.60;99.90;;;;;;5012761;28;20636;-46
2023/08/09 08:17:02;;;;;;;7.97;6.55;;;19.50;99.90;;;;;;5012904;28;20184;-47
2023/08/09 08:19:28;;;;;;;6.47;5.90;;;19.50;99.90;;;;;;5015740;28;20245;-46
2023/08/09 08:21:53;;;;;;;6.57;5.97;;;19.70;99.90;;;;;;5032811;28;20174;-46
2023/08/09 08:24:19;;;;;;;6.88;5.80;;;19.80;99.90;;;;;;5032883;28;20174;-46
2023/08/09 08:26:44;;;;;;;7.40;6.70;;;19.80;99.90;;;;;;5032304;28;20203;-45
2023/08/09 08:29:10;;;;;;;10.82;6.43;;;20.00;99.90;;;;;;5031636;28;20171;-46
2023/08/09 08:31:36;;;;;;;6.80;6.10;;;19.90;99.90;;;;;;5012507;28;20191;-46
2023/08/09 08:34:03;;;;;;;7.07;6.07;;;20.10;99.90;;;;;;5011665;28;20640;-48
2023/08/09 08:36:29;;;;;;;7.50;6.38;;;20.10;99.90;;;;;;5012367;28;20575;-46
2023/08/09 08:38:54;;;;;;;5.80;5.25;;;20.10;99.90;;;;;;5012460;28;20242;-45
2023/08/09 08:41:20;;;;;;;5.00;4.57;;;20.10;99.90;;;;;;5030749;28;20171;-47
2023/08/09 08:43:47;;;;;;;5.72;4.85;;;20.10;99.90;;;;;;5032035;28;20503;-45
2023/08/09 08:46:16;;;;;;;6.00;4.50;;;20.20;99.90;;;;;;5031999;28;20171;-46
2023/08/09 08:48:47;;;;;;;7.20;4.60;;;20.00;99.90;;;;;;5032280;28;20178;-45
2023/08/09 08:51:13;;;;;;;6.10;5.03;;;20.00;99.90;;;;;;5013859;28;20267;-46
2023/08/09 08:53:39;;;;;;;5.60;4.78;;;20.10;99.90;;;;;;5012008;28;20247;-46
2023/08/09 08:56:05;;;;;;;11.13;5.90;;;20.10;99.90;;;;;;5012117;28;20653;-46
2023/08/09 08:58:31;;;;;;;5.55;4.90;;;20.10;99.90;;;;;;5012098;28;20258;-45
2023/08/09 09:00:57;;;;;;;10.90;5.78;;;20.30;99.90;;;;;;5025929;28;20263;-46
2023/08/09 09:03:22;;;;;;;7.75;5.50;;;19.70;99.90;;;;;;5032084;28;20254;-48
2023/08/09 09:05:48;;;;;;;5.68;5.18;;;19.60;99.90;;;;;;5031740;28;20176;-46
2023/08/09 09:08:14;;;;;;;6.50;4.88;;;19.70;99.90;;;;;;5031472;28;20207;-47
2023/08/09 09:10:53;;;;;;;6.18;4.93;;;19.80;99.90;;;;;;5019709;28;20251;-46
2023/08/09 09:13:26;;;;;;;6.68;5.20;;;19.90;99.90;;;;;;5012131;28;20253;-46
2023/08/09 09:15:54;;;;;;;7.65;5.47;;;20.10;99.90;;;;;;5012506;28;20175;-46
2023/08/09 09:18:21;;;;;;;7.95;6.00;;;20.40;99.90;;;;;;5012846;28;20172;-46
2023/08/09 09:20:47;;;;;;;7.90;5.70;;;20.50;99.90;;;;;;5024453;28;20182;-46
2023/08/09 09:23:27;;;;;;;10.13;5.63;;;20.50;99.90;;;;;;5032087;28;20160;-45
2023/08/09 09:26:03;;;;;;;13.52;6.85;;;20.40;99.90;;;;;;5032347;28;20655;-45
2023/08/09 09:28:29;;;;;;;8.90;5.57;;;20.60;99.90;;;;;;5031817;28;20199;-46
2023/08/09 09:30:58;;;;;;;9.60;4.72;;;21.00;99.90;;;;;;5018564;28;20168;-48
2023/08/09 09:33:34;;;;;;;8.95;5.03;;;21.20;99.90;;;;;;4994483;28;20230;-45
2023/08/09 09:36:01;;;;;;;5.57;4.70;;;21.00;99.90;;;;;;5012068;28;20206;-46
2023/08/09 09:38:27;;;;;;;7.57;5.13;;;21.40;99.90;;;;;;5018138;28;20182;-47
2023/08/09 09:40:53;;;;;;;5.53;4.82;;;21.40;99.90;;;;;;5032402;28;20171;-46
2023/08/09 09:43:18;;;;;;;5.75;4.80;;;22.60;99.90;;;;;;5032294;28;20175;-50
2023/08/09 09:45:44;;;;;;;6.20;5.03;;;21.30;99.90;;;;;;5030238;28;20174;-46
2023/08/09 09:48:17;;;;;;;7.50;5.45;;;21.40;99.90;;;;;;5027880;28;20211;-46
2023/08/09 09:50:46;;;;;;;7.10;5.28;;;21.30;99.90;;;;;;5012195;28;20554;-47
2023/08/09 09:53:15;;;;;;;5.20;4.70;;;21.60;99.90;;;;;;5011803;28;20624;-49
2023/08/09 09:55:41;;;;;;;9.95;4.95;;;21.50;99.90;;;;;;5012035;28;20179;-46
2023/08/09 09:58:07;;;;;;;6.90;4.45;;;21.80;99.90;;;;;;5014326;28;20175;-48
2023/08/09 10:00:33;;;;;;;5.65;4.05;;;21.90;99.90;;;;;;5031491;28;20167;-46
2023/08/09 10:03:04;;;;;;;9.07;4.60;;;21.90;99.90;;;;;;5031264;28;20167;-50
2023/08/09 10:05:35;;;;;;;6.70;4.32;;;22.10;99.90;;;;;;5031597;28;20182;-47
2023/08/09 10:08:07;;;;;;;6.38;4.30;;;21.60;99.90;;;;;;5029178;28;20701;-50
2023/08/09 10:10:36;;;;;;;6.85;4.38;;;21.50;99.90;;;;;;5011623;28;20176;-50
2023/08/09 10:13:03;;;;;;;7.78;4.32;;;20.90;99.90;;;;;;5011485;28;20212;-46
2023/08/09 10:15:34;;;;;;;5.22;4.25;;;20.80;99.90;;;;;;5011591;28;20199;-47
2023/08/09 10:18:18;;;;;;;18.30;10.32;;;20.70;99.90;;;;;;5012912;28;20171;-50
2023/08/09 10:20:50;;;;;;;22.65;14.23;;;21.00;99.90;;;;;;5030915;28;20236;-46
2023/08/09 10:23:21;;;;;;;4.60;4.20;;;21.70;99.90;;;;;;5031118;28;20171;-50
2023/08/09 10:25:48;;;;;;;13.63;4.75;;;21.70;99.90;;;;;;5031277;28;20171;-46
2023/08/09 10:28:14;;;;;;;8.55;4.70;;;21.80;99.90;;;;;;5027444;28;20207;-46
2023/08/09 10:30:51;;;;;;;5.38;4.53;;;22.30;99.90;;;;;;5011490;28;20164;-47
2023/08/09 10:33:21;;;;;;;5.82;4.47;;;22.20;99.90;;;;;;5011610;28;20176;-50
2023/08/09 10:35:50;;;;;;;5.15;4.50;;;22.30;99.90;;;;;;5010126;28;20178;-50
2023/08/09 10:38:25;;;;;;;6.30;5.35;;;22.00;99.90;;;;;;5012385;28;20573;-46
2023/08/09 10:40:52;;;;;;;6.93;4.65;;;22.20;99.90;;;;;;5011709;28;20163;-46
2023/08/09 10:43:21;;;;;;;7.40;4.35;;;22.00;99.90;;;;;;5011739;28;20160;-46
2023/08/09 10:45:48;;;;;;;4.35;3.95;;;22.20;99.90;;;;;;5010072;28;20167;-48
2023/08/09 10:48:21;;;;;;;6.10;4.30;;;22.10;99.90;;;;;;5013325;28;20297;-45
2023/08/09 10:50:59;;;;;;;9.48;5.35;;;22.50;99.90;;;;;;5030234;28;20182;-49
2023/08/09 10:53:24;;;;;;;5.35;4.65;;;22.80;99.90;;;;;;5030175;28;20177;-45
2023/08/09 10:55:50;;;;;;;5.03;4.28;;;22.80;99.90;;;;;;5030572;28;20171;-46
2023/08/09 10:58:15;;;;;;;7.55;5.38;;;23.00;99.90;;;;;;5030539;28;20167;-45
2023/08/09 11:00:42;;;;;;;5.30;3.90;;;22.80;99.90;;;;;;5014007;28;20171;-47
2023/08/09 11:03:09;;;;;;;7.97;5.47;;;22.70;99.90;;;;;;5014481;28;20251;-48
2023/08/09 11:05:37;;;;;;;5.63;4.07;;;22.60;99.90;;;;;;5014084;28;20168;-47
2023/08/09 11:08:10;;;;;;;5.80;4.45;;;22.30;99.90;;;;;;5027763;28;20589;-47
2023/08/09 11:10:40;;;;;;;4.85;3.75;;;22.50;99.90;;;;;;5034124;28;20174;-46
2023/08/09 11:13:15;;;;;;;5.60;4.07;;;22.60;99.90;;;;;;5033294;28;20315;-46
2023/08/09 11:15:45;;;;;;;4.25;3.67;;;22.80;99.90;;;;;;5033589;28;20162;-46
2023/08/09 11:18:12;;;;;;;5.18;3.90;;;22.60;99.90;;;;;;5018324;28;20175;-46
2023/08/09 11:20:37;;;;;;;6.65;3.33;;;22.70;99.90;;;;;;5013911;28;20255;-47
2023/08/09 11:23:04;;;;;;;2.40;2.20;;;22.80;99.90;;;;;;5013762;28;20263;-47
2023/08/09 11:25:31;;;;;;;3.33;3.03;;;22.60;99.90;;;;;;5018184;28;20171;-46
2023/08/09 11:27:59;;;;;;;2.22;2.03;;;22.40;99.90;;;;;;5031795;28;20682;-46
2023/08/09 11:30:28;;;;;;;3.40;2.40;;;22.70;99.90;;;;;;5032165;28;20232;-46
2023/08/09 11:32:56;;;;;;;3.47;2.45;;;22.90;99.90;;;;;;5033261;28;20162;-45
2023/08/09 11:35:39;;;;;;;2.60;2.15;;;22.80;99.90;;;;;;5027658;28;20199;-46
2023/08/09 11:38:09;;;;;;;6.70;2.60;;;22.90;99.90;;;;;;5013503;28;20155;-48
2023/08/09 11:40:39;;;;;;;5.45;2.42;;;23.10;99.90;;;;;;5012197;28;20670;-46
2023/08/09 11:43:09;;;;;;;5.45;2.83;;;23.10;99.90;;;;;;5013515;28;20541;-44
2023/08/09 11:45:50;;;;;;;4.20;2.42;;;23.50;99.90;;;;;;5019308;28;20174;-44
2023/08/09 11:48:30;;;;;;;1.85;1.75;;;23.10;99.90;;;;;;5032629;28;20577;-46
2023/08/09 11:51:03;;;;;;;3.38;2.20;;;23.00;99.90;;;;;;5033144;28;20167;-44
2023/08/09 11:53:28;;;;;;;2.42;2.13;;;22.90;99.90;;;;;;5033310;28;20173;-45
2023/08/09 11:56:01;;;;;;;2.28;1.90;;;22.90;99.90;;;;;;5024217;28;20171;-44
2023/08/09 11:58:27;;;;;;;4.57;2.03;;;22.80;99.90;;;;;;5012970;28;20251;-44
2023/08/09 12:00:53;;;;;;;3.92;1.90;;;23.20;99.90;;;;;;5016470;28;20199;-44
2023/08/09 12:03:21;;;;;;;2.83;2.08;;;23.30;99.90;;;;;;5032954;28;20167;-43
2023/08/09 12:05:50;;;;;;;3.40;2.20;;;23.40;99.90;;;;;;5025192;28;20262;-44
2023/08/09 12:08:16;;;;;;;2.38;1.92;;;23.80;99.90;;;;;;5012650;28;20217;-45
2023/08/09 12:10:42;;;;;;;1.90;1.70;;;24.00;99.90;;;;;;5012926;28;20167;-44
2023/08/09 12:13:09;;;;;;;5.75;2.00;;;23.60;99.90;;;;;;5012611;28;20219;-44
2023/08/09 12:15:35;;;;;;;3.50;2.00;;;23.30;99.90;;;;;;5031190;28;20183;-45
2023/08/09 12:18:01;;;;;;;2.92;1.88;;;23.70;99.90;;;;;;5032587;28;20167;-44
2023/08/09 12:20:27;;;;;;;2.28;1.98;;;24.10;99.90;;;;;;5032480;28;20175;-45
2023/08/09 12:22:52;;;;;;;2.97;1.70;;;23.50;99.90;;;;;;5032464;28;20635;-46
2023/08/09 12:25:18;;;;;;;2.03;1.85;;;23.20;99.90;;;;;;5016197;28;20204;-44
2023/08/09 12:27:44;;;;;;;4.43;1.70;;;23.30;99.90;;;;;;5012528;28;20214;-45
2023/08/09 12:30:10;;;;;;;2.53;1.75;;;23.30;99.90;;;;;;5012555;28;20635;-45
2023/08/09 12:32:37;;;;;;;3.80;1.80;;;23.70;99.90;;;;;;5012859;28;20176;-45
2023/08/09 12:35:04;;;;;;;5.10;1.85;;;23.70;99.90;;;;;;5026025;28;20258;-44
2023/08/09 12:37:29;;;;;;;1.58;1.48;;;24.00;99.90;;;;;;5032398;28;20260;-44
2023/08/09 12:39:56;;;;;;;2.90;1.50;;;23.90;99.90;;;;;;5031927;28;20194;-44
2023/08/09 12:42:22;;;;;;;1.60;1.50;;;24.00;99.90;;;;;;5032416;28;20182;-45
2023/08/09 12:44:47;;;;;;;3.78;1.80;;;24.00;99.90;;;;;;5020723;28;20261;-44